Flugplatz Nordholz Airport

Bericht für ETMN

vom 25.08. um 20:20 UTC

Wind 4 kt aus 70°

Sichtweite 10 km oder mehr

gering bewölkt in 30000 ft

Temperatur 22.0°C

Taupunkt 17.0°C

Luftfeuchtigkeit 73%

Luftdruck 1020 hPa

ETMN 252020Z 07004KT 9999 FEW300 22/17 Q1020 BLU+
Keine Prognose (TAF) verfügbar.
Impressum